Time;durP1;ratioP1;P1;durP2;ratioP2;P2;SDS_P1;SDS_P2;PMS_P1;PMS_P2;Temp;Humidity;BMP_temperature;BMP_pressure;BME280_temperature;BME280_humidity;BME280_pressure;Samples;Min_cycle;Max_cycle;Signal;HPM_P1;HPM_P2
2021/04/22 00:00:57;;;;;;;16.65;12.02;;;12.20;91.60;;;;;;4917289;29;20024;-80
2021/04/22 00:03:23;;;;;;;22.92;12.93;;;12.20;91.90;;;;;;4918360;29;20056;-79
2021/04/22 00:05:49;;;;;;;18.98;11.73;;;12.20;91.90;;;;;;4917946;29;20019;-80
2021/04/22 00:08:15;;;;;;;19.55;11.90;;;12.20;91.90;;;;;;4918368;29;20032;-80
2021/04/22 00:10:51;;;;;;;18.10;11.90;;;12.10;92.10;;;;;;4901466;29;20571;-80
2021/04/22 00:13:21;;;;;;;18.05;12.18;;;12.10;92.20;;;;;;4918259;29;20115;-79
2021/04/22 00:15:47;;;;;;;20.00;12.20;;;12.10;92.30;;;;;;4917669;29;20107;-80
2021/04/22 00:18:13;;;;;;;19.95;13.23;;;12.10;92.40;;;;;;4902851;29;20045;-80
2021/04/22 00:20:40;;;;;;;18.88;12.07;;;12.10;92.50;;;;;;4929739;29;20020;-79
2021/04/22 00:23:09;;;;;;;21.20;11.70;;;12.00;92.50;;;;;;4922967;29;20040;-80
2021/04/22 00:25:35;;;;;;;20.77;12.48;;;12.00;92.60;;;;;;4902540;29;20027;-80
2021/04/22 00:28:05;;;;;;;20.38;12.45;;;12.00;92.60;;;;;;4918171;29;20032;-80
2021/04/22 00:30:31;;;;;;;18.73;12.45;;;12.00;92.70;;;;;;4918033;29;20039;-79
2021/04/22 00:32:57;;;;;;;22.10;12.68;;;12.00;92.90;;;;;;4917893;29;20039;-80
2021/04/22 00:35:23;;;;;;;19.58;12.55;;;11.90;93.00;;;;;;4916133;29;20031;-80
2021/04/22 00:37:49;;;;;;;19.95;12.45;;;11.90;93.10;;;;;;4899004;29;20036;-80
2021/04/22 00:40:19;;;;;;;21.70;12.85;;;11.90;93.20;;;;;;4899057;29;20388;-80
2021/04/22 00:42:45;;;;;;;20.33;12.75;;;11.80;93.50;;;;;;4893489;29;20508;-80
2021/04/22 00:45:11;;;;;;;19.48;12.85;;;11.80;93.60;;;;;;4917552;29;20029;-80
2021/04/22 00:47:37;;;;;;;24.58;12.57;;;11.80;93.70;;;;;;4898707;29;20044;-79
2021/04/22 00:50:09;;;;;;;22.27;13.40;;;11.70;93.80;;;;;;4899020;29;20059;-80
2021/04/22 00:52:36;;;;;;;16.92;12.43;;;11.70;93.90;;;;;;4898750;29;20020;-80
2021/04/22 00:55:02;;;;;;;20.48;13.85;;;11.60;93.90;;;;;;4881949;29;20028;-79
2021/04/22 00:57:28;;;;;;;21.30;13.35;;;11.60;94.00;;;;;;4915960;29;20455;-80
2021/04/22 00:59:53;;;;;;;22.27;14.05;;;11.60;94.30;;;;;;4917545;29;20119;-79
2021/04/22 01:02:19;;;;;;;25.88;15.60;;;11.60;94.30;;;;;;4900376;29;20114;-79
2021/04/22 01:04:48;;;;;;;19.20;13.13;;;11.50;94.30;;;;;;4907843;29;20039;-80
2021/04/22 01:07:14;;;;;;;20.35;13.43;;;11.50;94.30;;;;;;4896691;29;20032;-80
2021/04/22 01:09:41;;;;;;;21.23;12.90;;;11.60;94.40;;;;;;4915643;29;20035;-80
2021/04/22 01:12:08;;;;;;;23.70;14.18;;;11.60;94.30;;;;;;4898114;29;20033;-80
2021/04/22 01:14:34;;;;;;;21.90;12.90;;;11.50;94.30;;;;;;4898444;29;20123;-80
2021/04/22 01:17:00;;;;;;;24.45;14.55;;;11.50;94.40;;;;;;4911459;29;20451;-79
2021/04/22 01:19:26;;;;;;;24.55;14.32;;;11.50;94.40;;;;;;4899459;29;20036;-80
2021/04/22 01:21:52;;;;;;;19.77;13.60;;;11.50;94.20;;;;;;4917114;29;20484;-79
2021/04/22 01:24:19;;;;;;;24.42;14.88;;;11.40;94.20;;;;;;4917189;29;20020;-80
2021/04/22 01:26:45;;;;;;;21.33;13.45;;;11.40;94.20;;;;;;4929910;29;20092;-80
2021/04/22 01:29:11;;;;;;;22.55;14.13;;;11.40;94.30;;;;;;4917069;29;20032;-79
2021/04/22 01:31:37;;;;;;;22.80;14.10;;;11.40;94.30;;;;;;4916875;29;20115;-79
2021/04/22 01:34:05;;;;;;;22.25;13.93;;;11.30;94.50;;;;;;4916962;29;20453;-79
2021/04/22 01:36:36;;;;;;;21.35;14.00;;;11.30;94.50;;;;;;4894686;29;20036;-80
2021/04/22 01:39:10;;;;;;;23.10;14.32;;;11.30;94.40;;;;;;4917084;29;20038;-80
2021/04/22 01:41:36;;;;;;;23.05;14.73;;;11.20;94.40;;;;;;4930094;29;20028;-79
2021/04/22 01:44:03;;;;;;;23.67;14.20;;;11.30;94.40;;;;;;4916768;29;20055;-79
2021/04/22 01:46:28;;;;;;;27.13;15.43;;;11.30;94.50;;;;;;4916690;29;20036;-79
2021/04/22 01:48:55;;;;;;;24.35;15.07;;;11.30;94.40;;;;;;4916710;29;20035;-80
2021/04/22 01:51:21;;;;;;;21.63;14.02;;;11.20;94.40;;;;;;4916791;29;20507;-79
2021/04/22 01:53:47;;;;;;;21.63;14.13;;;11.20;94.50;;;;;;4922384;29;20019;-79
2021/04/22 01:56:14;;;;;;;22.40;15.18;;;11.20;94.50;;;;;;4935690;29;20483;-80
2021/04/22 01:58:40;;;;;;;26.85;14.82;;;11.20;94.60;;;;;;4935561;29;20032;-80
2021/04/22 02:01:06;;;;;;;24.60;15.02;;;11.20;94.50;;;;;;4935503;29;20024;-79
2021/04/22 02:03:33;;;;;;;23.80;14.32;;;11.20;94.60;;;;;;4935754;29;20030;-80
2021/04/22 02:06:00;;;;;;;22.70;14.32;;;11.20;94.60;;;;;;4935558;29;20028;-80
2021/04/22 02:08:26;;;;;;;21.90;14.25;;;11.10;94.70;;;;;;4935523;29;20064;-79
2021/04/22 02:10:52;;;;;;;22.05;14.57;;;11.10;94.90;;;;;;4935422;29;20059;-79
2021/04/22 02:13:20;;;;;;;25.23;15.27;;;11.10;95.30;;;;;;4918245;29;20396;-79
2021/04/22 02:15:47;;;;;;;22.95;14.18;;;11.10;95.00;;;;;;4935415;29;20555;-79
2021/04/22 02:18:13;;;;;;;21.50;13.73;;;11.10;95.00;;;;;;4918127;29;20035;-80
2021/04/22 02:20:39;;;;;;;21.98;14.75;;;11.10;95.10;;;;;;4935314;29;20394;-80
2021/04/22 02:23:07;;;;;;;24.17;15.05;;;11.10;95.10;;;;;;4919061;29;20032;-79
2021/04/22 02:25:33;;;;;;;24.65;14.25;;;11.00;95.20;;;;;;4939345;29;20019;-80
2021/04/22 02:27:59;;;;;;;21.25;14.48;;;11.00;95.20;;;;;;4939388;29;20055;-80
2021/04/22 02:30:31;;;;;;;24.50;14.98;;;11.00;95.40;;;;;;4922143;29;20039;-80
2021/04/22 02:32:59;;;;;;;23.73;14.95;;;11.00;95.60;;;;;;4922076;29;20027;-80
2021/04/22 02:35:28;;;;;;;23.58;14.88;;;10.90;95.50;;;;;;4932224;29;20024;-80
2021/04/22 02:37:54;;;;;;;24.20;15.25;;;10.90;95.70;;;;;;4919988;29;20496;-80
2021/04/22 02:40:24;;;;;;;24.75;16.10;;;10.80;96.00;;;;;;4920073;29;20073;-79
2021/04/22 02:42:51;;;;;;;25.63;15.20;;;10.80;96.00;;;;;;4920073;29;20060;-80
2021/04/22 02:45:24;;;;;;;24.40;14.68;;;10.70;96.30;;;;;;4934554;29;20664;-79
2021/04/22 02:47:50;;;;;;;26.58;15.13;;;10.70;96.50;;;;;;4902774;29;20040;-80
2021/04/22 02:50:20;;;;;;;24.63;15.63;;;10.70;96.50;;;;;;4919886;29;20039;-79
2021/04/22 02:52:46;;;;;;;26.10;15.70;;;10.70;96.60;;;;;;4919813;29;20033;-80
2021/04/22 02:55:13;;;;;;;31.45;16.45;;;10.60;96.80;;;;;;4919842;29;20388;-80
2021/04/22 02:57:39;;;;;;;25.48;16.42;;;10.60;96.80;;;;;;4919719;29;20024;-80
2021/04/22 03:00:07;;;;;;;26.55;15.35;;;10.60;96.90;;;;;;4919591;29;20036;-78
2021/04/22 03:02:32;;;;;;;25.25;16.38;;;10.60;96.90;;;;;;4919403;29;20032;-79
2021/04/22 03:04:59;;;;;;;29.27;16.17;;;10.60;96.90;;;;;;4919614;29;20035;-80
2021/04/22 03:07:25;;;;;;;28.75;16.33;;;10.60;97.00;;;;;;4919561;29;20025;-79
2021/04/22 03:09:50;;;;;;;28.05;16.67;;;10.60;96.90;;;;;;4919457;29;20028;-79
2021/04/22 03:12:16;;;;;;;27.05;16.67;;;10.60;96.90;;;;;;4919435;29;20032;-79
2021/04/22 03:14:42;;;;;;;24.95;15.60;;;10.50;97.20;;;;;;4919465;29;20060;-79
2021/04/22 03:17:08;;;;;;;24.90;15.55;;;10.50;97.20;;;;;;4919320;29;20107;-80
2021/04/22 03:19:33;;;;;;;27.25;15.80;;;10.50;97.30;;;;;;4919250;29;20031;-79
2021/04/22 03:22:00;;;;;;;26.00;16.60;;;10.50;97.30;;;;;;4919171;29;20451;-79
2021/04/22 03:24:26;;;;;;;29.40;16.17;;;10.50;97.50;;;;;;4919260;29;20068;-80
2021/04/22 03:26:52;;;;;;;33.28;17.13;;;10.40;97.70;;;;;;4919193;29;20020;-80
2021/04/22 03:29:18;;;;;;;27.23;16.58;;;10.40;97.80;;;;;;4918789;29;20131;-80
2021/04/22 03:31:43;;;;;;;29.17;17.38;;;10.40;97.90;;;;;;4900665;29;20028;-78
2021/04/22 03:34:09;;;;;;;29.05;17.50;;;10.40;97.80;;;;;;4882476;29;20040;-79
2021/04/22 03:36:35;;;;;;;29.77;16.23;;;10.40;97.80;;;;;;4881687;29;20036;-80
2021/04/22 03:39:01;;;;;;;25.63;16.02;;;10.40;98.00;;;;;;4899350;29;20040;-80
2021/04/22 03:41:26;;;;;;;28.60;16.15;;;10.40;98.30;;;;;;4899128;29;20490;-79
2021/04/22 03:43:52;;;;;;;29.42;16.92;;;10.30;98.30;;;;;;4899217;29;20029;-80
2021/04/22 03:46:18;;;;;;;25.60;15.77;;;10.30;98.30;;;;;;4882303;29;20032;-79
2021/04/22 03:48:44;;;;;;;28.23;16.83;;;10.40;98.20;;;;;;4900302;29;20113;-80
2021/04/22 03:51:09;;;;;;;27.67;16.15;;;10.40;98.50;;;;;;4899851;29;20024;-80
2021/04/22 03:53:35;;;;;;;29.73;17.00;;;10.40;98.10;;;;;;4911719;29;20567;-80
2021/04/22 03:56:01;;;;;;;29.27;16.13;;;10.50;98.10;;;;;;4920665;29;20027;-79
2021/04/22 03:58:27;;;;;;;25.45;15.85;;;10.50;98.10;;;;;;4937620;29;20031;-80
2021/04/22 04:00:52;;;;;;;27.23;16.92;;;10.40;98.20;;;;;;4920412;29;20518;-79
2021/04/22 04:03:19;;;;;;;28.05;17.58;;;10.40;98.30;;;;;;4920487;29;20028;-79
2021/04/22 04:05:45;;;;;;;27.88;16.50;;;10.50;98.20;;;;;;4937592;29;20024;-80
2021/04/22 04:08:11;;;;;;;26.05;16.38;;;10.50;98.20;;;;;;4937603;29;20026;-80
2021/04/22 04:10:36;;;;;;;31.45;17.45;;;10.50;98.20;;;;;;4937277;29;20027;-79
2021/04/22 04:13:02;;;;;;;25.73;15.75;;;10.50;98.10;;;;;;4937380;29;20602;-79
2021/04/22 04:15:28;;;;;;;26.27;15.98;;;10.50;97.90;;;;;;4937339;29;20028;-79
2021/04/22 04:17:54;;;;;;;27.60;16.20;;;10.60;98.00;;;;;;4937345;29;20071;-80
2021/04/22 04:20:19;;;;;;;29.45;17.85;;;10.60;98.00;;;;;;4923133;29;20031;-80
2021/04/22 04:22:47;;;;;;;25.63;15.25;;;10.60;98.00;;;;;;4933113;29;20028;-80
2021/04/22 04:25:15;;;;;;;24.23;15.48;;;10.70;97.80;;;;;;4929368;29;20020;-79
2021/04/22 04:27:42;;;;;;;31.17;17.30;;;10.70;97.90;;;;;;4901765;29;20025;-78
2021/04/22 04:30:15;;;;;;;32.35;16.88;;;10.60;97.90;;;;;;4899194;29;20024;-80
2021/04/22 04:32:42;;;;;;;30.73;17.92;;;10.60;98.20;;;;;;4882232;29;20021;-79
2021/04/22 04:35:09;;;;;;;26.13;16.15;;;10.40;98.30;;;;;;4899036;29;20694;-79
2021/04/22 04:37:35;;;;;;;27.90;16.92;;;10.40;98.50;;;;;;4898923;29;20036;-79
2021/04/22 04:40:02;;;;;;;29.48;16.75;;;10.50;98.50;;;;;;4904352;29;20032;-80
2021/04/22 04:42:31;;;;;;;32.22;17.90;;;10.50;98.40;;;;;;4909237;29;20112;-80
2021/04/22 04:44:57;;;;;;;32.05;16.63;;;10.40;98.70;;;;;;4913945;29;20035;-79
2021/04/22 04:47:22;;;;;;;32.00;17.52;;;10.30;98.70;;;;;;4916557;29;20043;-79
2021/04/22 04:49:48;;;;;;;31.92;18.15;;;10.40;98.70;;;;;;4900639;29;20052;-79
2021/04/22 04:52:14;;;;;;;29.05;17.98;;;10.40;98.50;;;;;;4900600;29;20056;-80
2021/04/22 04:54:39;;;;;;;31.70;17.60;;;10.50;98.40;;;;;;4917671;29;20111;-80
2021/04/22 04:57:07;;;;;;;28.17;16.65;;;10.50;98.40;;;;;;4917552;29;20064;-80
2021/04/22 04:59:33;;;;;;;30.00;18.10;;;10.40;98.50;;;;;;4917534;29;20052;-80
2021/04/22 05:01:59;;;;;;;30.48;17.05;;;10.40;98.60;;;;;;4886749;29;20033;-80
2021/04/22 05:04:24;;;;;;;29.80;17.42;;;10.40;98.70;;;;;;4902062;29;20036;-80
2021/04/22 05:06:50;;;;;;;29.85;17.60;;;10.30;98.80;;;;;;4906552;29;20056;-79
2021/04/22 05:09:16;;;;;;;31.45;17.50;;;10.40;98.90;;;;;;4900361;29;20679;-80
2021/04/22 05:11:42;;;;;;;29.88;17.65;;;10.40;98.90;;;;;;4917148;29;20033;-80
2021/04/22 05:14:08;;;;;;;27.73;17.08;;;10.40;98.80;;;;;;4900385;29;20043;-80
2021/04/22 05:16:33;;;;;;;26.92;17.45;;;10.50;98.90;;;;;;4917301;29;20186;-79
2021/04/22 05:18:59;;;;;;;30.42;17.95;;;10.50;98.90;;;;;;4900098;29;20059;-79
2021/04/22 05:21:25;;;;;;;26.85;17.15;;;10.50;98.90;;;;;;4900056;29;20029;-80
2021/04/22 05:23:50;;;;;;;31.67;18.00;;;10.50;98.90;;;;;;4899940;29;20021;-80
2021/04/22 05:26:19;;;;;;;32.15;18.80;;;10.50;99.00;;;;;;4915503;29;20031;-80
2021/04/22 05:28:45;;;;;;;31.80;17.77;;;10.50;99.00;;;;;;4917109;29;20436;-80
2021/04/22 05:31:11;;;;;;;29.17;16.33;;;10.50;99.00;;;;;;4899899;29;20024;-79
2021/04/22 05:33:37;;;;;;;32.42;18.58;;;10.50;99.00;;;;;;4899191;29;20083;-80
2021/04/22 05:36:04;;;;;;;33.72;17.90;;;10.60;98.90;;;;;;4898909;29;20035;-80
2021/04/22 05:38:30;;;;;;;31.25;17.75;;;10.70;98.80;;;;;;4881181;29;20134;-80
2021/04/22 05:40:55;;;;;;;26.63;16.77;;;10.70;99.10;;;;;;4897918;29;20509;-79
2021/04/22 05:43:22;;;;;;;29.98;18.50;;;10.80;98.70;;;;;;4895594;29;20480;-80
2021/04/22 05:45:48;;;;;;;28.35;16.98;;;10.90;98.60;;;;;;4916423;29;20032;-80
2021/04/22 05:48:13;;;;;;;27.83;18.27;;;10.90;98.50;;;;;;4916750;29;20423;-80
2021/04/22 05:50:39;;;;;;;30.63;17.10;;;11.00;98.50;;;;;;4899678;29;20083;-80
2021/04/22 05:53:05;;;;;;;29.67;16.52;;;11.10;98.50;;;;;;4916602;29;20498;-79
2021/04/22 05:55:31;;;;;;;28.02;16.35;;;11.10;98.50;;;;;;4909997;29;20504;-80
2021/04/22 05:57:58;;;;;;;31.38;17.20;;;11.10;98.40;;;;;;4896704;29;20060;-80
2021/04/22 06:00:27;;;;;;;27.15;16.17;;;11.10;98.50;;;;;;4898877;29;20020;-80
2021/04/22 06:02:54;;;;;;;31.33;18.08;;;11.20;98.40;;;;;;4916575;29;20510;-80
2021/04/22 06:05:19;;;;;;;29.90;18.02;;;11.20;98.40;;;;;;4900286;29;20036;-80
2021/04/22 06:07:45;;;;;;;29.92;17.75;;;11.30;98.20;;;;;;4897566;29;20104;-80
2021/04/22 06:10:12;;;;;;;26.13;16.35;;;11.30;98.40;;;;;;4897505;29;20028;-79
2021/04/22 06:12:37;;;;;;;26.40;16.50;;;11.40;98.70;;;;;;4880925;29;20445;-80
2021/04/22 06:15:04;;;;;;;26.10;15.48;;;11.40;98.60;;;;;;4885252;29;20056;-79
2021/04/22 06:17:30;;;;;;;30.73;17.67;;;11.50;98.40;;;;;;4931330;29;20023;-80
2021/04/22 06:19:56;;;;;;;28.13;16.35;;;11.50;98.20;;;;;;4928461;29;20514;-80
2021/04/22 06:22:21;;;;;;;25.25;16.15;;;11.60;98.20;;;;;;4935212;29;20016;-80
2021/04/22 06:24:47;;;;;;;31.15;17.40;;;11.60;97.70;;;;;;4935342;29;20058;-79
2021/04/22 06:27:13;;;;;;;32.45;17.33;;;11.60;97.70;;;;;;4935443;29;20078;-79
2021/04/22 06:29:39;;;;;;;31.23;18.08;;;11.70;97.70;;;;;;4918069;29;20031;-80
2021/04/22 06:32:09;;;;;;;30.20;17.58;;;11.70;97.80;;;;;;4912395;29;20616;-80
2021/04/22 06:34:35;;;;;;;31.90;18.35;;;11.70;97.70;;;;;;4915681;29;20624;-79
2021/04/22 06:37:02;;;;;;;31.50;20.30;;;11.80;98.80;;;;;;4916212;29;20036;-79
2021/04/22 06:39:29;;;;;;;33.53;19.52;;;11.80;99.50;;;;;;4916240;29;20039;-80
2021/04/22 06:41:54;;;;;;;32.17;19.73;;;11.80;99.20;;;;;;4916063;29;20084;-80
2021/04/22 06:44:20;;;;;;;32.92;19.45;;;11.90;99.90;;;;;;4899356;29;20040;-80
2021/04/22 06:46:46;;;;;;;33.75;19.20;;;11.90;99.80;;;;;;4916086;29;20040;-80
2021/04/22 06:49:12;;;;;;;33.53;19.08;;;11.90;99.90;;;;;;4916176;29;20028;-80
2021/04/22 06:51:38;;;;;;;33.67;18.65;;;11.90;99.90;;;;;;4916065;29;20060;-80
2021/04/22 06:54:04;;;;;;;36.95;19.70;;;12.00;99.60;;;;;;4916120;29;20055;-79
2021/04/22 06:56:30;;;;;;;37.15;20.50;;;12.00;99.30;;;;;;4916128;29;20079;-80
2021/04/22 06:58:58;;;;;;;36.28;19.10;;;12.00;99.20;;;;;;4892957;29;20041;-80
2021/04/22 07:01:24;;;;;;;30.00;19.20;;;12.10;99.10;;;;;;4909450;29;20037;-79
2021/04/22 07:03:49;;;;;;;32.60;18.88;;;12.10;99.20;;;;;;4918710;29;20086;-79
2021/04/22 07:06:15;;;;;;;31.25;19.45;;;12.20;99.00;;;;;;4914123;29;20028;-79
2021/04/22 07:08:42;;;;;;;35.45;19.80;;;12.20;99.20;;;;;;4914035;29;20484;-80
2021/04/22 07:11:08;;;;;;;34.72;18.80;;;12.30;99.90;;;;;;4928873;29;20036;-80
2021/04/22 07:13:33;;;;;;;33.45;19.92;;;12.30;98.90;;;;;;4905095;29;20079;-79
2021/04/22 07:15:59;;;;;;;35.50;20.67;;;12.30;99.00;;;;;;4900622;29;20069;-81
2021/04/22 07:18:25;;;;;;;35.13;19.77;;;12.40;99.20;;;;;;4917402;29;20036;-80
2021/04/22 07:20:51;;;;;;;39.13;20.98;;;12.40;99.40;;;;;;4919710;29;20028;-82
2021/04/22 07:23:16;;;;;;;32.00;19.65;;;12.40;99.50;;;;;;4898735;29;20036;-81
2021/04/22 07:25:42;;;;;;;34.10;20.58;;;12.50;99.90;;;;;;4923220;29;20032;-81
2021/04/22 07:28:09;;;;;;;37.30;20.42;;;12.50;99.90;;;;;;4896758;29;20153;-81
2021/04/22 07:30:38;;;;;;;31.58;20.13;;;12.60;99.90;;;;;;4906207;29;20486;-80
2021/04/22 07:33:06;;;;;;;34.17;18.60;;;12.60;99.90;;;;;;4916455;29;20095;-81
2021/04/22 07:35:32;;;;;;;29.98;18.63;;;12.60;99.50;;;;;;4918329;29;20378;-80
2021/04/22 07:37:58;;;;;;;32.13;18.48;;;12.70;99.90;;;;;;4912870;29;20036;-80
2021/04/22 07:40:27;;;;;;;32.83;18.27;;;12.70;99.90;;;;;;4901701;29;20039;-80
2021/04/22 07:42:53;;;;;;;29.60;16.90;;;12.70;99.90;;;;;;4912357;29;20048;-80
2021/04/22 07:45:23;;;;;;;30.83;18.38;;;12.80;99.90;;;;;;4915705;29;20492;-80
2021/04/22 07:47:49;;;;;;;29.85;17.50;;;12.90;99.70;;;;;;4910615;29;20070;-79
2021/04/22 07:50:17;;;;;;;31.67;19.13;;;12.90;99.60;;;;;;4912839;29;20034;-80
2021/04/22 07:52:44;;;;;;;38.42;19.92;;;12.90;99.00;;;;;;4918514;29;20024;-80
2021/04/22 07:55:14;;;;;;;39.03;21.15;;;12.90;99.70;;;;;;4918915;29;20075;-80
2021/04/22 07:57:39;;;;;;;33.92;19.95;;;13.00;99.90;;;;;;4915850;29;20031;-80
2021/04/22 08:00:10;;;;;;;31.65;19.40;;;13.00;98.80;;;;;;4923034;29;20036;-80
2021/04/22 08:02:35;;;;;;;35.15;20.17;;;13.00;98.40;;;;;;4893028;29;20679;-79
2021/04/22 08:05:03;;;;;;;35.47;19.55;;;12.90;98.30;;;;;;4915898;29;20028;-80
2021/04/22 08:07:29;;;;;;;32.25;20.42;;;12.90;99.20;;;;;;4915038;29;20084;-79
2021/04/22 08:09:54;;;;;;;34.92;20.77;;;13.00;99.30;;;;;;4907761;29;20036;-80
2021/04/22 08:12:20;;;;;;;30.38;19.67;;;13.00;98.80;;;;;;4921979;29;20032;-80
2021/04/22 08:14:46;;;;;;;34.50;20.33;;;13.10;99.80;;;;;;4914010;29;20610;-80
2021/04/22 08:17:12;;;;;;;39.45;21.05;;;13.10;99.10;;;;;;4924640;29;20043;-80
2021/04/22 08:19:38;;;;;;;35.33;22.17;;;13.20;99.40;;;;;;4904874;29;20035;-80
2021/04/22 08:22:04;;;;;;;38.20;20.48;;;13.20;99.90;;;;;;4913383;29;20035;-80
2021/04/22 08:24:29;;;;;;;47.50;23.13;;;13.30;99.80;;;;;;4899392;29;20063;-80
2021/04/22 08:26:56;;;;;;;36.55;22.27;;;13.30;99.50;;;;;;4929231;29;20472;-80
2021/04/22 08:29:22;;;;;;;37.38;22.80;;;13.30;99.10;;;;;;4898575;29;20164;-80
2021/04/22 08:31:48;;;;;;;36.08;21.33;;;13.30;99.00;;;;;;4915482;29;20087;-80
2021/04/22 08:34:14;;;;;;;36.75;22.23;;;13.40;98.80;;;;;;4924479;29;20028;-81
2021/04/22 08:36:40;;;;;;;35.95;22.02;;;13.40;98.40;;;;;;4927948;29;20127;-81
2021/04/22 08:39:08;;;;;;;36.47;21.20;;;13.40;98.60;;;;;;4920057;29;20167;-81
2021/04/22 08:41:34;;;;;;;35.30;20.77;;;13.50;99.20;;;;;;4900066;29;20043;-80
2021/04/22 08:44:02;;;;;;;33.38;20.20;;;13.70;98.80;;;;;;4916851;29;20103;-81
2021/04/22 08:46:30;;;;;;;35.67;20.17;;;13.80;98.60;;;;;;4916516;29;20044;-80
2021/04/22 08:48:56;;;;;;;29.65;18.88;;;13.80;97.80;;;;;;4924242;29;20556;-81
2021/04/22 08:51:23;;;;;;;29.80;19.15;;;13.80;96.50;;;;;;4922514;29;20060;-81
2021/04/22 08:53:49;;;;;;;25.70;16.85;;;13.70;96.80;;;;;;4918487;29;20032;-81
2021/04/22 08:56:18;;;;;;;38.38;20.13;;;13.80;96.50;;;;;;4903209;29;20031;-81
2021/04/22 08:58:44;;;;;;;34.42;20.70;;;13.90;97.30;;;;;;4928276;29;20036;-81
2021/04/22 09:01:12;;;;;;;36.28;21.38;;;13.90;96.80;;;;;;4917083;29;20020;-81
2021/04/22 09:03:39;;;;;;;37.92;20.67;;;14.00;97.00;;;;;;4921150;29;20024;-80
2021/04/22 09:06:06;;;;;;;39.60;21.52;;;14.10;97.60;;;;;;4917027;29;20124;-80
2021/04/22 09:08:35;;;;;;;36.38;21.38;;;14.10;98.00;;;;;;4916524;29;20032;-80
2021/04/22 09:11:01;;;;;;;36.50;20.42;;;14.20;97.70;;;;;;4906423;29;20040;-80
2021/04/22 09:13:28;;;;;;;33.42;20.25;;;14.20;97.20;;;;;;4899419;29;20072;-80
2021/04/22 09:16:19;;;;;;;34.38;20.05;;;14.40;98.30;;;;;;4905849;29;20028;-80
2021/04/22 09:18:48;;;;;;;36.13;20.65;;;14.50;98.10;;;;;;4915300;29;20048;-79
2021/04/22 09:21:20;;;;;;;34.70;19.75;;;14.50;97.70;;;;;;4923901;29;20023;-80
2021/04/22 09:24:08;;;;;;;30.57;18.90;;;14.60;96.50;;;;;;4916293;29;20035;-77
2021/04/22 09:26:56;;;;;;;32.53;20.27;;;14.60;96.10;;;;;;4930220;29;20058;-77
2021/04/22 09:29:42;;;;;;;30.35;18.63;;;14.50;96.00;;;;;;4907703;29;20028;-76
2021/04/22 09:32:19;;;;;;;36.85;21.02;;;14.50;96.30;;;;;;4908763;29;20405;-76
2021/04/22 09:34:51;;;;;;;36.70;21.60;;;14.60;96.50;;;;;;4916803;29;20476;-76
2021/04/22 09:37:21;;;;;;;31.60;20.42;;;14.60;95.80;;;;;;4917077;29;20028;-77
2021/04/22 09:39:48;;;;;;;38.45;20.92;;;14.70;96.10;;;;;;4904451;29;20146;-78
2021/04/22 09:42:18;;;;;;;30.65;19.92;;;14.60;95.00;;;;;;4899327;29;20135;-79
2021/04/22 09:44:48;;;;;;;31.38;20.58;;;14.70;95.60;;;;;;4909358;29;20122;-77
2021/04/22 09:47:18;;;;;;;36.42;21.13;;;14.90;95.60;;;;;;4895571;29;20048;-78
2021/04/22 09:49:50;;;;;;;37.53;21.52;;;15.00;95.20;;;;;;4922885;29;21277;-73
2021/04/22 09:52:18;;;;;;;37.75;22.83;;;15.00;94.60;;;;;;4919044;29;20110;-73
2021/04/22 09:54:52;;;;;;;37.92;20.83;;;15.00;95.00;;;;;;4912114;29;20028;-73
2021/04/22 09:57:23;;;;;;;36.10;20.85;;;15.10;95.10;;;;;;4903425;29;20087;-73
2021/04/22 09:59:50;;;;;;;31.17;19.95;;;15.20;94.60;;;;;;4923139;29;20063;-73
2021/04/22 10:02:15;;;;;;;33.97;21.35;;;15.20;94.80;;;;;;4916468;29;20640;-73
2021/04/22 10:04:44;;;;;;;33.80;20.65;;;15.30;94.30;;;;;;4895808;29;20032;-73
2021/04/22 10:07:21;;;;;;;33.38;20.25;;;15.30;94.70;;;;;;4917466;29;20038;-73
2021/04/22 10:09:47;;;;;;;30.55;19.10;;;15.30;94.80;;;;;;4920621;29;20035;-73
2021/04/22 10:12:39;;;;;;;39.63;24.27;;;15.40;93.50;;;;;;4913117;29;20492;-73
2021/04/22 10:15:12;;;;;;;38.42;22.77;;;15.30;93.70;;;;;;4925214;29;20054;-73
2021/04/22 10:17:38;;;;;;;33.90;20.35;;;15.50;93.80;;;;;;4912339;29;20055;-73
2021/04/22 10:20:04;;;;;;;29.67;19.38;;;15.60;92.40;;;;;;4917042;29;20039;-73
2021/04/22 10:22:36;;;;;;;36.53;20.08;;;15.70;92.30;;;;;;4920989;29;20035;-73
2021/04/22 10:25:06;;;;;;;;;;;15.80;92.20;;;;;;4915466;29;20036;-73
2021/04/22 10:27:33;;;;;;;33.33;19.95;;;15.90;92.50;;;;;;4911522;29;19918;-74
2021/04/22 10:29:59;;;;;;;37.65;20.95;;;15.90;91.90;;;;;;4907209;29;20036;-74
2021/04/22 10:32:26;;;;;;;35.35;20.33;;;16.10;92.50;;;;;;4917497;29;20584;-73
2021/04/22 10:34:52;;;;;;;31.83;18.52;;;16.20;92.50;;;;;;4916794;29;20107;-73
2021/04/22 10:37:20;;;;;;;34.33;20.17;;;16.30;91.80;;;;;;4909575;29;20056;-73
2021/04/22 10:39:46;;;;;;;32.22;19.75;;;16.40;92.50;;;;;;4921160;29;20032;-74
2021/04/22 10:42:13;;;;;;;32.70;20.38;;;16.50;91.00;;;;;;4889719;29;20029;-74
2021/04/22 10:44:40;;;;;;;31.83;19.52;;;16.50;91.20;;;;;;4906156;29;20039;-73
2021/04/22 10:47:05;;;;;;;34.22;20.67;;;16.70;91.70;;;;;;4911003;29;20583;-73
2021/04/22 10:49:32;;;;;;;31.45;20.75;;;16.70;90.50;;;;;;4891791;29;20108;-74
2021/04/22 10:52:00;;;;;;;34.80;20.73;;;16.80;90.20;;;;;;4909366;29;20505;-74
2021/04/22 10:54:26;;;;;;;32.20;19.83;;;16.90;91.20;;;;;;4894997;29;20029;-73
2021/04/22 10:57:16;;;;;;;33.30;20.83;;;17.10;90.70;;;;;;4888582;29;20024;-73
2021/04/22 10:59:48;;;;;;;34.28;20.13;;;17.20;90.40;;;;;;4890109;29;20036;-73
2021/04/22 11:02:23;;;;;;;39.17;20.27;;;17.40;90.90;;;;;;4901794;29;20111;-73
2021/04/22 11:04:50;;;;;;;29.98;19.52;;;17.50;89.50;;;;;;4900322;29;20028;-74
2021/04/22 11:07:26;;;;;;;31.38;19.27;;;17.50;89.00;;;;;;4905968;29;20036;-74
2021/04/22 11:09:55;;;;;;;32.90;19.08;;;17.70;90.50;;;;;;4896129;29;20036;-74
2021/04/22 11:12:29;;;;;;;33.17;20.40;;;17.70;86.60;;;;;;4908053;29;20025;-73
2021/04/22 11:14:56;;;;;;;35.42;20.25;;;17.60;85.80;;;;;;4895301;29;20065;-74
2021/04/22 11:17:39;;;;;;;32.53;19.40;;;17.70;88.40;;;;;;4902635;29;20046;-73
2021/04/22 11:20:37;;;;;;;30.40;19.58;;;17.90;85.00;;;;;;4907623;29;20040;-73
2021/04/22 11:23:13;;;;;;;28.02;18.52;;;18.00;86.60;;;;;;4885632;29;20040;-73
2021/04/22 11:25:53;;;;;;;33.35;19.60;;;18.10;85.90;;;;;;4907052;29;20027;-73
2021/04/22 11:28:29;;;;;;;29.25;19.10;;;18.20;81.60;;;;;;4896364;29;20417;-74
2021/04/22 11:31:15;;;;;;;29.27;19.33;;;18.20;85.60;;;;;;4900418;29;20032;-73
2021/04/22 11:33:41;;;;;;;30.27;18.77;;;18.50;86.30;;;;;;4906338;29;20028;-73
2021/04/22 11:36:16;;;;;;;30.67;18.40;;;18.70;86.70;;;;;;4884171;29;20492;-73
2021/04/22 11:39:04;;;;;;;31.35;17.88;;;18.70;81.80;;;;;;4881685;29;20147;-73
2021/04/22 11:41:32;;;;;;;27.40;18.10;;;18.50;81.20;;;;;;4892028;29;20552;-73
2021/04/22 11:44:07;;;;;;;30.42;19.02;;;18.40;83.30;;;;;;4902263;29;20020;-73
2021/04/22 11:46:44;;;;;;;35.40;18.25;;;18.40;82.40;;;;;;4903915;29;20582;-73
2021/04/22 11:49:31;;;;;;;30.83;19.05;;;18.60;83.10;;;;;;4925056;29;20039;-74
2021/04/22 11:51:59;;;;;;;28.80;19.17;;;18.70;82.50;;;;;;4898919;29;20036;-74
2021/04/22 11:54:29;;;;;;;27.58;19.17;;;19.00;83.20;;;;;;4923108;29;20032;-74
2021/04/22 11:57:00;;;;;;;31.00;19.02;;;19.00;79.20;;;;;;4923149;29;20156;-73
2021/04/22 11:59:27;;;;;;;24.67;17.13;;;19.10;78.20;;;;;;4905311;29;20087;-73
2021/04/22 12:01:56;;;;;;;29.73;17.92;;;19.10;78.00;;;;;;4915353;29;20314;-73
2021/04/22 12:04:23;;;;;;;29.80;17.15;;;19.20;76.40;;;;;;4922560;29;20503;-78
2021/04/22 12:06:51;;;;;;;29.25;18.52;;;19.20;75.70;;;;;;4923345;29;20035;-78
2021/04/22 12:09:28;;;;;;;27.65;18.55;;;19.40;76.60;;;;;;4917312;29;20032;-78
2021/04/22 12:11:54;;;;;;;32.58;18.55;;;19.40;74.40;;;;;;4914250;29;20031;-77
2021/04/22 12:14:29;;;;;;;25.63;16.95;;;19.50;74.00;;;;;;4911862;29;20495;-78
2021/04/22 12:16:55;;;;;;;30.95;19.10;;;19.60;75.70;;;;;;4892787;29;20127;-78
2021/04/22 12:19:26;;;;;;;26.40;17.67;;;19.40;73.20;;;;;;4911051;29;20707;-77
2021/04/22 12:21:53;;;;;;;22.98;15.90;;;19.30;74.70;;;;;;4916101;29;20039;-77
2021/04/22 12:24:22;;;;;;;25.83;17.30;;;19.30;76.10;;;;;;4912754;29;20051;-77
2021/04/22 12:26:48;;;;;;;25.45;16.98;;;19.50;78.00;;;;;;4916273;29;20021;-78
2021/04/22 12:29:15;;;;;;;25.33;17.15;;;19.70;75.40;;;;;;4926927;29;20031;-77
2021/04/22 12:31:47;;;;;;;23.83;16.55;;;19.90;74.10;;;;;;4916513;29;20055;-77